KBMT/BMT METAR and TAF weather

Enter ICAO airport designator
Station Type Date Time Source
KBMT METAR 2019/02/23 02:35 UTC NOAA

KBMT 230235Z AUTO 16007KT 1 3/4SM BR OVC003 22/21 A2992 RMK AO2 T02150205


Station Type Date Time Source
KBMT Decoded METAR 2019/02/23 02:35 UTC NOAA

Station name not available
Feb 22, 2019 - 09:35 PM EST / 2019.02.23 0235 UTC
Wind: from the SSE (160 degrees) at 8 MPH (7 KT):0
Visibility: 1 3/4 mile(s):0
Sky conditions: overcast
Weather: mist
Temperature: 70.7 F (21.5 C)
Dew Point: 68.9 F (20.5 C)
Relative Humidity: 94%
Pressure (altimeter): 29.92 in. Hg (1013 hPa)
ob: KBMT 230235Z AUTO 16007KT 1 3/4SM BR OVC003 22/21 A2992 RMK AO2 T02150205
cycle: 2

Station Type Date Time Source
KBMT TAF UTC NOAA

Error!


Example: see airport list